Terminal Aerodrome Forecast
Issued by NWS

Home | Current Version | Previous Version | Text Only | Print | Product List | Glossary On
Versions: 1 2 3 4 5 6 7 8 9 10 11 12 13 14
000
FTUS43 KFGF 260500
TAFTVF
TAF
KTVF 260536Z 2606/2706 19013KT P6SM BKN015
     FM260800 19013KT P6SM SCT015 BKN050
     FM261100 29016G24KT P6SM BKN050
     FM261500 31015G25KT P6SM BKN025
     FM270000 32008KT P6SM BKN015
      AMD LTD TO CLD VIS AND WIND=

USA.gov is the U.S. government's official web portal to all federal, state and local government web resources and services.